White Lake, Michigan
Current Conditions -  °F | °C
As of 9:53 AM on Monday 22 Dec 2014 (Local Time) from KPTK Reporting Station
Haze Haze  
Wind Chill: 24°   Ceiling: Unl
Heat Index: 31°   Visibility: 6mi
Dew Point: 26°   Wind: 7mph
Humidity: 82%   Direction: 110°ESE
Pressure: 30.06"   Gusts: NA
Location:  42.69°N, 83.55°W
Report Text: KPTK 221453Z 11006KT 6SM HZ FEW180 SCT250 M01/M03 A3006 RMK AO2 SLP190 T10061033 58006
Loading
Personal Weather Stations






























Interactive Weather Map New forecast layout! Learn more

10-Day Weather Forecast

Advertisements
Track Severe Weather on mobile